sensor_id;sensor_type;location;lat;lon;timestamp;pressure;altitude;pressure_sealevel;temperature;humidity
64644;BME280;51056;50.330;7.914;2023-01-31T00:02:12;101556.13;;;4.26;89.82
64644;BME280;51056;50.330;7.914;2023-01-31T00:05:15;101548.41;;;4.23;89.82
64644;BME280;51056;50.330;7.914;2023-01-31T00:08:19;101551.09;;;4.11;91.07
64644;BME280;51056;50.330;7.914;2023-01-31T00:11:24;101540.03;;;3.95;91.71
64644;BME280;51056;50.330;7.914;2023-01-31T00:14:28;101531.38;;;3.99;91.13
64644;BME280;51056;50.330;7.914;2023-01-31T00:17:31;101550.44;;;3.90;89.87
64644;BME280;51056;50.330;7.914;2023-01-31T00:20:35;101546.03;;;4.00;89.34
64644;BME280;51056;50.330;7.914;2023-01-31T00:23:39;101540.00;;;3.98;89.16
64644;BME280;51056;50.330;7.914;2023-01-31T00:26:42;101541.72;;;3.97;89.11
64644;BME280;51056;50.330;7.914;2023-01-31T00:29:45;101530.53;;;3.95;88.66
64644;BME280;51056;50.330;7.914;2023-01-31T00:32:49;101540.16;;;3.80;88.74
64644;BME280;51056;50.330;7.914;2023-01-31T00:39:46;101553.09;;;3.81;88.12
64644;BME280;51056;50.330;7.914;2023-01-31T00:42:53;101549.59;;;3.85;87.88
64644;BME280;51056;50.330;7.914;2023-01-31T00:46:21;101560.16;;;3.58;89.41
64644;BME280;51056;50.330;7.914;2023-01-31T00:49:25;101572.94;;;3.76;88.69
64644;BME280;51056;50.330;7.914;2023-01-31T00:52:28;101560.84;;;3.80;88.39
64644;BME280;51056;50.330;7.914;2023-01-31T00:55:33;101572.06;;;3.80;87.73
64644;BME280;51056;50.330;7.914;2023-01-31T00:58:37;101577.25;;;3.80;87.40
64644;BME280;51056;50.330;7.914;2023-01-31T01:01:41;101561.72;;;3.80;87.53
64644;BME280;51056;50.330;7.914;2023-01-31T01:04:44;101563.38;;;3.90;87.50
64644;BME280;51056;50.330;7.914;2023-01-31T01:07:48;101562.66;;;3.68;86.91
64644;BME280;51056;50.330;7.914;2023-01-31T01:10:52;101561.84;;;3.65;85.65
64644;BME280;51056;50.330;7.914;2023-01-31T01:13:57;101570.50;;;3.61;86.06
64644;BME280;51056;50.330;7.914;2023-01-31T01:17:00;101570.41;;;3.67;86.86
64644;BME280;51056;50.330;7.914;2023-01-31T01:20:04;101566.13;;;3.70;86.71
64644;BME280;51056;50.330;7.914;2023-01-31T01:23:07;101575.72;;;3.47;87.14
64644;BME280;51056;50.330;7.914;2023-01-31T01:26:14;101567.13;;;3.43;87.77
64644;BME280;51056;50.330;7.914;2023-01-31T01:29:18;101566.25;;;3.47;87.53
64644;BME280;51056;50.330;7.914;2023-01-31T01:32:21;101571.47;;;3.40;87.91
64644;BME280;51056;50.330;7.914;2023-01-31T01:35:24;101563.63;;;3.50;87.54
64644;BME280;51056;50.330;7.914;2023-01-31T01:38:27;101573.03;;;3.65;87.34
64644;BME280;51056;50.330;7.914;2023-01-31T01:41:31;101574.75;;;3.66;87.01
64644;BME280;51056;50.330;7.914;2023-01-31T01:47:48;101572.09;;;3.77;86.91
64644;BME280;51056;50.330;7.914;2023-01-31T01:50:53;101574.75;;;3.63;87.08
64644;BME280;51056;50.330;7.914;2023-01-31T01:54:04;101575.56;;;3.73;86.92
64644;BME280;51056;50.330;7.914;2023-01-31T01:57:15;101575.50;;;3.82;86.56
64644;BME280;51056;50.330;7.914;2023-01-31T02:00:24;101578.94;;;3.84;86.62
64644;BME280;51056;50.330;7.914;2023-01-31T02:03:30;101576.38;;;3.81;87.04
64644;BME280;51056;50.330;7.914;2023-01-31T02:06:37;101575.47;;;3.85;87.61
64644;BME280;51056;50.330;7.914;2023-01-31T02:12:43;101572.88;;;3.87;88.16
64644;BME280;51056;50.330;7.914;2023-01-31T02:15:48;101566.81;;;3.91;88.04
64644;BME280;51056;50.330;7.914;2023-01-31T02:18:51;101558.16;;;3.92;87.59
64644;BME280;51056;50.330;7.914;2023-01-31T02:22:05;101554.75;;;3.88;88.31
64644;BME280;51056;50.330;7.914;2023-01-31T02:32:17;101547.19;;;3.62;89.72
64644;BME280;51056;50.330;7.914;2023-01-31T02:48:45;101562.88;;;3.32;87.84
64644;BME280;51056;50.330;7.914;2023-01-31T02:51:52;101559.47;;;3.33;87.40
64644;BME280;51056;50.330;7.914;2023-01-31T02:59:10;101567.22;;;3.31;87.17
64644;BME280;51056;50.330;7.914;2023-01-31T03:02:14;101574.13;;;3.32;87.11
64644;BME280;51056;50.330;7.914;2023-01-31T03:05:18;101579.31;;;3.26;87.25
64644;BME280;51056;50.330;7.914;2023-01-31T03:13:01;101582.72;;;3.31;86.95
64644;BME280;51056;50.330;7.914;2023-01-31T03:23:19;101587.94;;;3.19;86.71
64644;BME280;51056;50.330;7.914;2023-01-31T03:26:24;101586.28;;;3.10;86.73
64644;BME280;51056;50.330;7.914;2023-01-31T03:29:33;101582.84;;;3.10;86.72
64644;BME280;51056;50.330;7.914;2023-01-31T03:32:46;101591.47;;;3.02;86.59
64644;BME280;51056;50.330;7.914;2023-01-31T03:36:04;101593.25;;;2.91;86.61
64644;BME280;51056;50.330;7.914;2023-01-31T03:42:36;101597.56;;;2.83;86.59
64644;BME280;51056;50.330;7.914;2023-01-31T03:48:50;101616.56;;;2.71;86.02
64644;BME280;51056;50.330;7.914;2023-01-31T03:52:04;101598.50;;;2.54;86.06
64644;BME280;51056;50.330;7.914;2023-01-31T03:55:17;101595.06;;;2.55;86.27
64644;BME280;51056;50.330;7.914;2023-01-31T03:58:24;101596.78;;;2.53;85.93
64644;BME280;51056;50.330;7.914;2023-01-31T04:01:30;101600.22;;;2.48;86.31
64644;BME280;51056;50.330;7.914;2023-01-31T04:04:40;101605.41;;;2.29;86.09
64644;BME280;51056;50.330;7.914;2023-01-31T04:07:47;101592.50;;;2.29;86.53
64644;BME280;51056;50.330;7.914;2023-01-31T04:10:58;101596.81;;;2.32;86.33
64644;BME280;51056;50.330;7.914;2023-01-31T04:14:02;101591.66;;;2.27;86.27
64644;BME280;51056;50.330;7.914;2023-01-31T04:17:05;101589.94;;;2.22;86.15
64644;BME280;51056;50.330;7.914;2023-01-31T04:20:10;101586.50;;;2.17;85.87
64644;BME280;51056;50.330;7.914;2023-01-31T04:23:15;101588.22;;;2.01;86.49
64644;BME280;51056;50.330;7.914;2023-01-31T04:26:18;101582.22;;;2.06;86.29
64644;BME280;51056;50.330;7.914;2023-01-31T04:29:21;101575.34;;;2.02;86.50
64644;BME280;51056;50.330;7.914;2023-01-31T04:32:26;101573.63;;;2.00;85.70
64644;BME280;51056;50.330;7.914;2023-01-31T04:35:30;101578.78;;;1.97;85.85
64644;BME280;51056;50.330;7.914;2023-01-31T04:38:33;101577.91;;;1.96;85.53
64644;BME280;51056;50.330;7.914;2023-01-31T04:41:36;101579.63;;;1.91;85.83
64644;BME280;51056;50.330;7.914;2023-01-31T04:44:39;101583.91;;;1.78;85.80
64644;BME280;51056;50.330;7.914;2023-01-31T04:47:42;101574.50;;;1.82;86.29
64644;BME280;51056;50.330;7.914;2023-01-31T04:50:46;101577.91;;;1.87;85.76
64644;BME280;51056;50.330;7.914;2023-01-31T04:53:49;101582.19;;;1.88;85.70
64644;BME280;51056;50.330;7.914;2023-01-31T04:56:52;101571.88;;;1.85;85.46
64644;BME280;51056;50.330;7.914;2023-01-31T04:59:56;101583.06;;;1.81;85.76
64644;BME280;51056;50.330;7.914;2023-01-31T05:02:59;101575.34;;;1.76;85.25
64644;BME280;51056;50.330;7.914;2023-01-31T05:06:05;101576.19;;;1.77;85.38
64644;BME280;51056;50.330;7.914;2023-01-31T05:09:08;101577.88;;;1.66;85.82
64644;BME280;51056;50.330;7.914;2023-01-31T05:12:13;101584.78;;;1.63;85.73
64644;BME280;51056;50.330;7.914;2023-01-31T05:15:16;101571.88;;;1.62;86.00
64644;BME280;51056;50.330;7.914;2023-01-31T05:18:46;101588.22;;;1.64;85.76
64644;BME280;51056;50.330;7.914;2023-01-31T05:21:52;101572.72;;;1.59;86.02
64644;BME280;51056;50.330;7.914;2023-01-31T05:25:01;101579.63;;;1.57;85.58
64644;BME280;51056;50.330;7.914;2023-01-31T05:28:05;101569.28;;;1.54;85.85
64644;BME280;51056;50.330;7.914;2023-01-31T05:31:11;101562.41;;;1.59;85.84
64644;BME280;51056;50.330;7.914;2023-01-31T05:34:17;101568.44;;;1.58;85.33
64644;BME280;51056;50.330;7.914;2023-01-31T05:37:21;101560.72;;;1.63;85.59
64644;BME280;51056;50.330;7.914;2023-01-31T05:40:24;101562.44;;;1.56;85.37
64644;BME280;51056;50.330;7.914;2023-01-31T05:43:27;101565.00;;;1.56;85.25
64644;BME280;51056;50.330;7.914;2023-01-31T05:46:31;101562.44;;;1.56;85.10
64644;BME280;51056;50.330;7.914;2023-01-31T05:49:34;101558.13;;;1.54;85.38
64644;BME280;51056;50.330;7.914;2023-01-31T05:52:38;101555.53;;;1.46;85.17
64644;BME280;51056;50.330;7.914;2023-01-31T05:55:41;101564.13;;;1.45;85.47
64644;BME280;51056;50.330;7.914;2023-01-31T05:58:46;101546.94;;;1.44;85.04
64644;BME280;51056;50.330;7.914;2023-01-31T06:01:53;101564.09;;;1.36;85.28
64644;BME280;51056;50.330;7.914;2023-01-31T06:04:56;101559.81;;;1.38;85.47
64644;BME280;51056;50.330;7.914;2023-01-31T06:08:01;101561.53;;;1.36;85.32
64644;BME280;51056;50.330;7.914;2023-01-31T06:11:04;101549.50;;;1.36;84.97
64644;BME280;51056;50.330;7.914;2023-01-31T06:14:08;101556.34;;;1.33;84.96
64644;BME280;51056;50.330;7.914;2023-01-31T06:17:11;101559.81;;;1.32;85.01
64644;BME280;51056;50.330;7.914;2023-01-31T06:20:14;101561.50;;;1.30;85.12
64644;BME280;51056;50.330;7.914;2023-01-31T06:23:18;101568.34;;;1.23;85.59
64644;BME280;51056;50.330;7.914;2023-01-31T06:26:22;101570.94;;;1.22;85.68
64644;BME280;51056;50.330;7.914;2023-01-31T06:29:28;101571.81;;;1.22;85.66
64644;BME280;51056;50.330;7.914;2023-01-31T06:32:40;101570.94;;;1.19;85.52
64644;BME280;51056;50.330;7.914;2023-01-31T06:35:44;101569.22;;;1.24;85.12
64644;BME280;51056;50.330;7.914;2023-01-31T06:39:31;101569.22;;;1.24;85.35
64644;BME280;51056;50.330;7.914;2023-01-31T06:42:38;101560.63;;;1.20;85.52
64644;BME280;51056;50.330;7.914;2023-01-31T06:45:42;101571.75;;;1.13;86.02
64644;BME280;51056;50.330;7.914;2023-01-31T06:49:17;101570.09;;;1.33;89.30
64644;BME280;51056;50.330;7.914;2023-01-31T06:52:24;101577.03;;;1.57;88.77
64644;BME280;51056;50.330;7.914;2023-01-31T06:55:28;101573.63;;;1.77;88.00
64644;BME280;51056;50.330;7.914;2023-01-31T06:58:31;101579.63;;;1.85;87.17
64644;BME280;51056;50.330;7.914;2023-01-31T07:01:35;101578.78;;;1.86;87.55
64644;BME280;51056;50.330;7.914;2023-01-31T07:04:39;101570.19;;;1.96;86.89
64644;BME280;51056;50.330;7.914;2023-01-31T07:07:42;101575.31;;;2.01;87.04
64644;BME280;51056;50.330;7.914;2023-01-31T07:10:47;101570.19;;;1.93;86.80
64644;BME280;51056;50.330;7.914;2023-01-31T07:13:50;101575.31;;;1.98;86.85
64644;BME280;51056;50.330;7.914;2023-01-31T07:16:53;101570.19;;;1.96;86.74
64644;BME280;51056;50.330;7.914;2023-01-31T07:19:56;101569.31;;;1.99;86.85
64644;BME280;51056;50.330;7.914;2023-01-31T07:28:10;101565.91;;;2.07;86.38
64644;BME280;51056;50.330;7.914;2023-01-31T07:31:13;101567.44;;;2.84;88.67
64644;BME280;51056;50.330;7.914;2023-01-31T07:34:16;101562.41;;;2.33;85.03
64644;BME280;51056;50.330;7.914;2023-01-31T07:37:20;101557.25;;;2.28;85.95
64644;BME280;51056;50.330;7.914;2023-01-31T07:40:24;101558.97;;;2.34;85.86
64644;BME280;51056;50.330;7.914;2023-01-31T07:43:27;101569.28;;;2.37;85.22
64644;BME280;51056;50.330;7.914;2023-01-31T07:46:31;101565.84;;;2.38;85.78
64644;BME280;51056;50.330;7.914;2023-01-31T07:49:34;101556.06;;;3.23;86.32
64644;BME280;51056;50.330;7.914;2023-01-31T07:52:37;101566.34;;;3.32;84.63
64644;BME280;51056;50.330;7.914;2023-01-31T07:55:40;101563.47;;;3.75;84.56
64644;BME280;51056;50.330;7.914;2023-01-31T07:58:44;101563.00;;;3.16;82.23
64644;BME280;51056;50.330;7.914;2023-01-31T08:01:49;101570.03;;;2.77;83.81
64644;BME280;51056;50.330;7.914;2023-01-31T08:05:10;101566.59;;;2.71;84.03
64644;BME280;51056;50.330;7.914;2023-01-31T08:08:14;101565.78;;;2.69;84.52
64644;BME280;51056;50.330;7.914;2023-01-31T08:11:17;101570.13;;;2.56;84.63
64644;BME280;51056;50.330;7.914;2023-01-31T08:14:21;101553.78;;;2.52;85.16
64644;BME280;51056;50.330;7.914;2023-01-31T08:17:28;101558.94;;;2.49;84.83
64644;BME280;51056;50.330;7.914;2023-01-31T08:20:31;101554.13;;;3.59;86.52
64644;BME280;51056;50.330;7.914;2023-01-31T08:23:35;101550.09;;;3.06;82.77
64644;BME280;51056;50.330;7.914;2023-01-31T08:26:41;101539.91;;;2.84;83.56
64644;BME280;51056;50.330;7.914;2023-01-31T08:29:45;101543.38;;;2.68;84.15
64644;BME280;51056;50.330;7.914;2023-01-31T08:32:49;101530.44;;;2.77;84.06
64644;BME280;51056;50.330;7.914;2023-01-31T08:35:52;101529.59;;;2.78;84.19
64644;BME280;51056;50.330;7.914;2023-01-31T08:38:56;101526.13;;;2.82;83.97
64644;BME280;51056;50.330;7.914;2023-01-31T08:41:59;101527.81;;;2.83;83.65
64644;BME280;51056;50.330;7.914;2023-01-31T08:45:03;101525.22;;;2.86;83.42
64644;BME280;51056;50.330;7.914;2023-01-31T08:48:07;101526.09;;;2.91;83.49
64644;BME280;51056;50.330;7.914;2023-01-31T08:51:12;101526.06;;;2.93;82.80
64644;BME280;51056;50.330;7.914;2023-01-31T08:54:16;101524.28;;;3.04;82.51
64644;BME280;51056;50.330;7.914;2023-01-31T08:57:19;101544.94;;;3.09;82.00
64644;BME280;51056;50.330;7.914;2023-01-31T09:00:23;101541.50;;;3.10;82.67
64644;BME280;51056;50.330;7.914;2023-01-31T09:03:26;101556.06;;;3.26;82.48
64644;BME280;51056;50.330;7.914;2023-01-31T09:06:30;101574.00;;;3.44;82.02
64644;BME280;51056;50.330;7.914;2023-01-31T09:09:33;101569.78;;;3.34;81.54
64644;BME280;51056;50.330;7.914;2023-01-31T09:12:36;101582.78;;;3.16;81.09
64644;BME280;51056;50.330;7.914;2023-01-31T09:15:40;101565.56;;;3.15;81.23
64644;BME280;51056;50.330;7.914;2023-01-31T09:18:43;101532.88;;;3.11;81.71
64644;BME280;51056;50.330;7.914;2023-01-31T09:21:46;101549.22;;;3.11;81.53
64644;BME280;51056;50.330;7.914;2023-01-31T09:24:49;101532.84;;;3.14;81.37
64644;BME280;51056;50.330;7.914;2023-01-31T09:27:53;101533.66;;;3.19;81.60
64644;BME280;51056;50.330;7.914;2023-01-31T09:31:02;101518.06;;;3.36;81.81
64644;BME280;51056;50.330;7.914;2023-01-31T09:34:05;101525.28;;;4.05;83.26
64644;BME280;51056;50.330;7.914;2023-01-31T09:37:09;101528.75;;;4.05;79.75
64644;BME280;51056;50.330;7.914;2023-01-31T09:40:19;101534.28;;;3.61;79.97
64644;BME280;51056;50.330;7.914;2023-01-31T09:43:37;101540.31;;;3.57;80.98
64644;BME280;51056;50.330;7.914;2023-01-31T09:46:43;101542.03;;;3.61;80.17
64644;BME280;51056;50.330;7.914;2023-01-31T09:49:51;101548.97;;;3.56;80.63
64644;BME280;51056;50.330;7.914;2023-01-31T09:52:57;101543.78;;;3.54;80.23
64644;BME280;51056;50.330;7.914;2023-01-31T09:59:31;101538.66;;;3.51;80.09
64644;BME280;51056;50.330;7.914;2023-01-31T10:03:02;101536.06;;;3.53;80.46
64644;BME280;51056;50.330;7.914;2023-01-31T10:06:19;101543.84;;;3.48;79.74
64644;BME280;51056;50.330;7.914;2023-01-31T10:09:33;101550.78;;;3.43;80.45
64644;BME280;51056;50.330;7.914;2023-01-31T10:12:44;101560.25;;;3.42;80.60
64644;BME280;51056;50.330;7.914;2023-01-31T10:15:55;101553.41;;;3.38;80.11
64644;BME280;51056;50.330;7.914;2023-01-31T10:19:06;101543.06;;;3.38;80.23
64644;BME280;51056;50.330;7.914;2023-01-31T10:22:17;101528.41;;;3.37;80.40
64644;BME280;51056;50.330;7.914;2023-01-31T10:32:27;101503.31;;;3.52;80.04
64644;BME280;51056;50.330;7.914;2023-01-31T10:35:27;101507.53;;;3.62;79.79
64644;BME280;51056;50.330;7.914;2023-01-31T10:38:40;101504.06;;;3.63;80.01
64644;BME280;51056;50.330;7.914;2023-01-31T10:42:13;101495.47;;;3.64;79.34
64644;BME280;51056;50.330;7.914;2023-01-31T10:45:22;101498.06;;;3.61;79.28
64644;BME280;51056;50.330;7.914;2023-01-31T10:48:32;101484.38;;;3.48;79.58
64644;BME280;51056;50.330;7.914;2023-01-31T10:51:51;101467.13;;;3.52;79.67
64644;BME280;51056;50.330;7.914;2023-01-31T10:58:27;101463.47;;;3.72;79.30
64644;BME280;51056;50.330;7.914;2023-01-31T11:01:31;101466.84;;;3.82;79.38
64644;BME280;51056;50.330;7.914;2023-01-31T11:04:40;101458.31;;;3.74;78.80
64644;BME280;51056;50.330;7.914;2023-01-31T11:07:45;101460.97;;;3.65;79.33
64644;BME280;51056;50.330;7.914;2023-01-31T11:10:53;101460.09;;;3.63;79.37
64644;BME280;51056;50.330;7.914;2023-01-31T11:14:03;101436.84;;;3.60;79.39
64644;BME280;51056;50.330;7.914;2023-01-31T11:17:36;101433.41;;;3.62;79.48
64644;BME280;51056;50.330;7.914;2023-01-31T11:20:44;101425.66;;;3.61;79.32
64644;BME280;51056;50.330;7.914;2023-01-31T11:23:49;101427.34;;;3.65;79.71
64644;BME280;51056;50.330;7.914;2023-01-31T11:27:04;101410.75;;;3.86;80.21
64644;BME280;51056;50.330;7.914;2023-01-31T11:30:29;101409.88;;;3.85;78.91
64644;BME280;51056;50.330;7.914;2023-01-31T11:33:45;101403.09;;;3.75;79.04
64644;BME280;51056;50.330;7.914;2023-01-31T11:37:05;101390.09;;;3.80;79.13
64644;BME280;51056;50.330;7.914;2023-01-31T11:46:21;101385.13;;;3.61;79.40
64644;BME280;51056;50.330;7.914;2023-01-31T11:49:39;101376.38;;;3.73;79.75
64644;BME280;51056;50.330;7.914;2023-01-31T11:52:43;101348.00;;;3.68;79.43
64644;BME280;51056;50.330;7.914;2023-01-31T11:55:48;101335.81;;;3.78;79.38
64644;BME280;51056;50.330;7.914;2023-01-31T11:59:03;101333.25;;;3.75;78.96
64644;BME280;51056;50.330;7.914;2023-01-31T12:02:24;101318.44;;;3.88;79.46
64644;BME280;51056;50.330;7.914;2023-01-31T12:05:38;101331.53;;;3.77;79.19
64644;BME280;51056;50.330;7.914;2023-01-31T12:08:43;101302.19;;;3.78;79.75
64644;BME280;51056;50.330;7.914;2023-01-31T12:11:56;101313.25;;;3.92;79.67
64644;BME280;51056;50.330;7.914;2023-01-31T12:15:03;101305.59;;;3.83;80.03
64644;BME280;51056;50.330;7.914;2023-01-31T12:18:09;101297.53;;;4.05;79.20
64644;BME280;51056;50.330;7.914;2023-01-31T12:21:15;101281.22;;;3.98;79.34
64644;BME280;51056;50.330;7.914;2023-01-31T12:28:32;101269.03;;;4.09;79.33
64644;BME280;51056;50.330;7.914;2023-01-31T12:39:09;101277.63;;;4.08;79.78
64644;BME280;51056;50.330;7.914;2023-01-31T12:42:45;101278.31;;;4.21;79.18
64644;BME280;51056;50.330;7.914;2023-01-31T12:46:13;101276.66;;;4.17;79.12
64644;BME280;51056;50.330;7.914;2023-01-31T13:10:37;101244.72;;;4.19;81.42
64644;BME280;51056;50.330;7.914;2023-01-31T13:14:09;101246.41;;;4.22;82.08
64644;BME280;51056;50.330;7.914;2023-01-31T13:17:22;101242.09;;;4.21;81.92
64644;BME280;51056;50.330;7.914;2023-01-31T13:20:40;101248.06;;;4.28;81.96
64644;BME280;51056;50.330;7.914;2023-01-31T13:23:49;101258.47;;;4.23;82.28
64644;BME280;51056;50.330;7.914;2023-01-31T13:27:22;101264.53;;;4.22;82.77
64644;BME280;51056;50.330;7.914;2023-01-31T13:30:42;101247.22;;;4.24;81.08
64644;BME280;51056;50.330;7.914;2023-01-31T13:34:16;101247.25;;;4.21;81.50
64644;BME280;51056;50.330;7.914;2023-01-31T13:37:21;101255.84;;;4.26;80.75
64644;BME280;51056;50.330;7.914;2023-01-31T13:40:28;101254.84;;;4.35;80.98
64644;BME280;51056;50.330;7.914;2023-01-31T13:43:33;101250.56;;;4.32;80.66
64644;BME280;51056;50.330;7.914;2023-01-31T13:46:50;101250.56;;;4.32;80.80
64644;BME280;51056;50.330;7.914;2023-01-31T13:50:34;101248.88;;;4.31;81.02
64644;BME280;51056;50.330;7.914;2023-01-31T13:57:23;101238.50;;;4.31;81.15
64644;BME280;51056;50.330;7.914;2023-01-31T14:07:25;101236.41;;;4.55;80.46
64644;BME280;51056;50.330;7.914;2023-01-31T14:10:35;101231.28;;;4.52;80.44
64644;BME280;51056;50.330;7.914;2023-01-31T14:13:47;101233.88;;;4.52;80.67
64644;BME280;51056;50.330;7.914;2023-01-31T14:16:51;101235.59;;;4.51;80.66
64644;BME280;51056;50.330;7.914;2023-01-31T14:23:28;101243.31;;;4.54;81.23
64644;BME280;51056;50.330;7.914;2023-01-31T14:29:56;101229.50;;;4.55;80.81
64644;BME280;51056;50.330;7.914;2023-01-31T14:33:26;101214.69;;;4.62;80.99
64644;BME280;51056;50.330;7.914;2023-01-31T14:36:43;101222.31;;;4.71;80.79
64644;BME280;51056;50.330;7.914;2023-01-31T14:43:33;101224.09;;;4.69;81.17
64644;BME280;51056;50.330;7.914;2023-01-31T14:47:11;101213.56;;;4.78;80.83
64644;BME280;51056;50.330;7.914;2023-01-31T14:57:41;101209.19;;;4.82;81.31
64644;BME280;51056;50.330;7.914;2023-01-31T15:00:49;101204.97;;;4.76;81.44
64644;BME280;51056;50.330;7.914;2023-01-31T15:03:55;101207.38;;;4.87;81.18
64644;BME280;51056;50.330;7.914;2023-01-31T15:07:00;101210.06;;;4.82;81.77
64644;BME280;51056;50.330;7.914;2023-01-31T15:13:52;101207.56;;;4.76;82.97
64644;BME280;51056;50.330;7.914;2023-01-31T15:17:03;101210.22;;;4.73;83.94
64644;BME280;51056;50.330;7.914;2023-01-31T15:20:19;101214.59;;;4.70;84.07
64644;BME280;51056;50.330;7.914;2023-01-31T15:23:27;101222.38;;;4.68;84.94
64644;BME280;51056;50.330;7.914;2023-01-31T15:26:33;101224.97;;;4.68;85.42
64644;BME280;51056;50.330;7.914;2023-01-31T15:33:15;101214.44;;;4.79;86.16
64644;BME280;51056;50.330;7.914;2023-01-31T15:36:44;101205.06;;;4.70;86.27
64644;BME280;51056;50.330;7.914;2023-01-31T15:40:11;101203.97;;;4.83;85.63
64644;BME280;51056;50.330;7.914;2023-01-31T15:43:23;101210.09;;;4.79;86.23
64644;BME280;51056;50.330;7.914;2023-01-31T15:46:30;101208.31;;;4.81;86.65
64644;BME280;51056;50.330;7.914;2023-01-31T15:49:40;101208.31;;;4.81;86.80
64644;BME280;51056;50.330;7.914;2023-01-31T15:52:45;101220.47;;;4.79;87.44
64644;BME280;51056;50.330;7.914;2023-01-31T15:55:50;101223.97;;;4.77;87.40
64644;BME280;51056;50.330;7.914;2023-01-31T15:58:57;101222.22;;;4.77;87.38
64644;BME280;51056;50.330;7.914;2023-01-31T16:02:04;101220.53;;;4.76;86.90
64644;BME280;51056;50.330;7.914;2023-01-31T16:05:20;101225.69;;;4.76;86.90
64644;BME280;51056;50.330;7.914;2023-01-31T16:11:33;101232.53;;;4.80;87.16
64644;BME280;51056;50.330;7.914;2023-01-31T16:14:37;101228.19;;;4.82;86.88
64644;BME280;51056;50.330;7.914;2023-01-31T16:17:42;101228.13;;;4.85;86.47
64644;BME280;51056;50.330;7.914;2023-01-31T16:20:52;101227.25;;;4.86;86.60
64644;BME280;51056;50.330;7.914;2023-01-31T16:24:23;101240.16;;;4.88;86.96
64644;BME280;51056;50.330;7.914;2023-01-31T16:27:40;101229.88;;;4.83;87.10
64644;BME280;51056;50.330;7.914;2023-01-31T16:30:47;101242.84;;;4.83;87.97
64644;BME280;51056;50.330;7.914;2023-01-31T16:33:53;101241.16;;;4.82;87.47
64644;BME280;51056;50.330;7.914;2023-01-31T16:37:03;101235.06;;;4.83;87.58
64644;BME280;51056;50.330;7.914;2023-01-31T16:40:25;101252.34;;;4.83;87.80
64644;BME280;51056;50.330;7.914;2023-01-31T16:43:34;101264.47;;;4.82;87.77
64644;BME280;51056;50.330;7.914;2023-01-31T16:46:41;101251.47;;;4.85;88.20
64644;BME280;51056;50.330;7.914;2023-01-31T16:49:49;101253.16;;;4.86;88.30
64644;BME280;51056;50.330;7.914;2023-01-31T16:53:15;101257.53;;;4.83;88.62
64644;BME280;51056;50.330;7.914;2023-01-31T16:56:20;101251.50;;;4.82;88.62
64644;BME280;51056;50.330;7.914;2023-01-31T16:59:37;101249.81;;;4.78;89.23
64644;BME280;51056;50.330;7.914;2023-01-31T17:02:43;101252.41;;;4.78;89.69
64644;BME280;51056;50.330;7.914;2023-01-31T17:05:51;101250.72;;;4.79;89.24
64644;BME280;51056;50.330;7.914;2023-01-31T17:08:55;101245.47;;;4.80;90.04
64644;BME280;51056;50.330;7.914;2023-01-31T17:12:01;101242.94;;;4.79;90.06
64644;BME280;51056;50.330;7.914;2023-01-31T17:15:17;101258.50;;;4.77;90.40
64644;BME280;51056;50.330;7.914;2023-01-31T17:18:21;101253.31;;;4.77;90.73
64644;BME280;51056;50.330;7.914;2023-01-31T17:21:25;101254.09;;;4.81;90.91
64644;BME280;51056;50.330;7.914;2023-01-31T17:24:30;101260.25;;;4.75;91.10
64644;BME280;51056;50.330;7.914;2023-01-31T17:27:35;101247.34;;;4.72;91.35
64644;BME280;51056;50.330;7.914;2023-01-31T17:30:41;101246.47;;;4.73;91.20
64644;BME280;51056;50.330;7.914;2023-01-31T17:33:47;101264.53;;;4.78;91.61
64644;BME280;51056;50.330;7.914;2023-01-31T17:36:50;101258.38;;;4.83;91.74
64644;BME280;51056;50.330;7.914;2023-01-31T17:39:55;101248.03;;;4.83;90.98
64644;BME280;51056;50.330;7.914;2023-01-31T17:42:59;101248.88;;;4.84;91.40
64644;BME280;51056;50.330;7.914;2023-01-31T17:46:03;101249.72;;;4.84;91.07
64644;BME280;51056;50.330;7.914;2023-01-31T17:49:07;101261.78;;;4.88;91.42
64644;BME280;51056;50.330;7.914;2023-01-31T17:52:10;101254.00;;;4.88;91.43
64644;BME280;51056;50.330;7.914;2023-01-31T17:55:14;101257.44;;;4.87;90.67
64644;BME280;51056;50.330;7.914;2023-01-31T17:58:18;101251.41;;;4.88;91.01
64644;BME280;51056;50.330;7.914;2023-01-31T18:01:22;101263.53;;;4.85;90.88
64644;BME280;51056;50.330;7.914;2023-01-31T18:04:25;101250.66;;;4.82;91.38
64644;BME280;51056;50.330;7.914;2023-01-31T18:07:29;101260.03;;;4.87;91.70
64644;BME280;51056;50.330;7.914;2023-01-31T18:10:33;101257.44;;;4.87;91.35
64644;BME280;51056;50.330;7.914;2023-01-31T18:13:37;101260.94;;;4.86;91.48
64644;BME280;51056;50.330;7.914;2023-01-31T18:16:40;101258.28;;;4.89;90.62
64644;BME280;51056;50.330;7.914;2023-01-31T18:19:45;101270.31;;;4.94;90.84
64644;BME280;51056;50.330;7.914;2023-01-31T18:22:49;101268.66;;;4.89;91.42
64644;BME280;51056;50.330;7.914;2023-01-31T18:25:54;101272.13;;;4.88;91.39
64644;BME280;51056;50.330;7.914;2023-01-31T18:28:59;101254.81;;;4.90;91.62
64644;BME280;51056;50.330;7.914;2023-01-31T18:32:05;101254.81;;;4.90;90.64
64644;BME280;51056;50.330;7.914;2023-01-31T18:35:12;101247.88;;;4.93;90.37
64644;BME280;51056;50.330;7.914;2023-01-31T18:38:17;101247.81;;;4.96;90.57
64644;BME280;51056;50.330;7.914;2023-01-31T18:41:24;101252.94;;;4.99;90.12
64644;BME280;51056;50.330;7.914;2023-01-31T18:44:37;101255.50;;;5.02;90.57
64644;BME280;51056;50.330;7.914;2023-01-31T18:47:41;101261.47;;;5.04;89.68
64644;BME280;51056;50.330;7.914;2023-01-31T18:50:45;101246.75;;;5.06;89.65
64644;BME280;51056;50.330;7.914;2023-01-31T18:53:48;101251.03;;;5.08;90.20
64644;BME280;51056;50.330;7.914;2023-01-31T18:56:52;101250.09;;;5.12;89.55
64644;BME280;51056;50.330;7.914;2023-01-31T18:59:55;101238.03;;;5.11;89.68
64644;BME280;51056;50.330;7.914;2023-01-31T19:02:58;101229.34;;;5.14;89.27
64644;BME280;51056;50.330;7.914;2023-01-31T19:06:03;101249.25;;;5.12;88.95